Time;durP1;ratioP1;P1;durP2;ratioP2;P2;SDS_P1;SDS_P2;PMS_P1;PMS_P2;Temp;Humidity;BMP_temperature;BMP_pressure;BME280_temperature;BME280_humidity;BME280_pressure;Samples;Min_cycle;Max_cycle;Signal;HPM_P1;HPM_P2
2022/04/05 00:01:12;;;;;;;1.23;1.13;;;8.40;99.90;;;;;;5015084;28;20204;-73
2022/04/05 00:03:38;;;;;;;0.90;0.60;;;8.40;99.90;;;;;;5014924;28;20172;-72
2022/04/05 00:06:04;;;;;;;1.00;0.70;;;8.50;99.90;;;;;;5015077;28;20219;-73
2022/04/05 00:08:29;;;;;;;1.00;0.80;;;8.50;99.90;;;;;;5015252;28;20634;-73
2022/04/05 00:10:55;;;;;;;0.70;0.53;;;8.50;99.90;;;;;;5015238;28;20242;-73
2022/04/05 00:13:20;;;;;;;0.70;0.50;;;8.50;99.90;;;;;;5014739;28;20168;-73
2022/04/05 00:15:46;;;;;;;0.70;0.60;;;8.60;99.90;;;;;;5014923;28;20745;-73
2022/04/05 00:18:12;;;;;;;0.80;0.60;;;8.60;99.90;;;;;;5014811;28;20172;-73
2022/04/05 00:20:38;;;;;;;0.80;0.50;;;8.60;99.90;;;;;;5013764;28;20303;-70
2022/04/05 00:23:03;;;;;;;0.80;0.70;;;8.60;99.90;;;;;;5014546;28;20457;-72
2022/04/05 00:25:29;;;;;;;1.20;0.97;;;8.60;99.90;;;;;;5014732;28;20208;-72
2022/04/05 00:27:54;;;;;;;0.97;0.87;;;8.70;99.90;;;;;;5014793;28;20175;-72
2022/04/05 00:30:20;;;;;;;1.00;0.50;;;8.70;99.90;;;;;;5014653;28;20214;-72
2022/04/05 00:32:45;;;;;;;0.70;0.50;;;8.70;99.90;;;;;;5013933;28;20172;-73
2022/04/05 00:35:12;;;;;;;0.70;0.50;;;8.70;99.90;;;;;;5014555;28;20570;-73
2022/04/05 00:37:39;;;;;;;0.70;0.50;;;8.70;99.90;;;;;;5014564;28;20191;-73
2022/04/05 00:40:06;;;;;;;0.70;0.50;;;8.70;99.90;;;;;;5014623;28;20430;-72
2022/04/05 00:42:38;;;;;;;0.80;0.60;;;8.80;99.90;;;;;;5014254;28;20419;-72
2022/04/05 00:45:06;;;;;;;0.80;0.77;;;8.80;99.90;;;;;;5013094;28;20470;-72
2022/04/05 00:47:31;;;;;;;0.80;0.73;;;8.80;99.90;;;;;;5014297;28;20498;-72
2022/04/05 00:49:57;;;;;;;0.80;0.70;;;8.80;99.90;;;;;;5014631;28;20530;-72
2022/04/05 00:52:23;;;;;;;0.70;0.50;;;8.90;99.90;;;;;;5013888;28;20179;-72
2022/04/05 00:54:51;;;;;;;0.70;0.50;;;8.90;99.90;;;;;;5014049;28;20264;-72
2022/04/05 00:57:22;;;;;;;1.00;0.60;;;8.90;99.90;;;;;;5014219;28;20411;-72
2022/04/05 00:59:52;;;;;;;0.70;0.50;;;8.90;99.90;;;;;;5014275;28;20403;-73
2022/04/05 01:02:19;;;;;;;1.30;1.20;;;8.90;99.90;;;;;;5013811;28;20577;-72
2022/04/05 01:04:45;;;;;;;0.80;0.73;;;8.90;99.90;;;;;;5013919;28;20450;-72
2022/04/05 01:07:15;;;;;;;0.93;0.93;;;8.90;99.90;;;;;;5012866;28;20419;-72
2022/04/05 01:09:41;;;;;;;0.70;0.60;;;8.90;99.90;;;;;;5014028;28;20411;-72
2022/04/05 01:12:08;;;;;;;0.70;0.50;;;9.00;99.90;;;;;;5013830;28;20407;-72
2022/04/05 01:14:35;;;;;;;0.70;0.50;;;8.90;99.90;;;;;;5012590;28;20187;-72
2022/04/05 01:17:03;;;;;;;0.70;0.50;;;9.00;99.90;;;;;;5013602;28;20518;-72
2022/04/05 01:19:29;;;;;;;0.80;0.80;;;9.00;99.90;;;;;;5013769;28;20407;-72
2022/04/05 01:21:55;;;;;;;0.70;0.50;;;9.00;99.90;;;;;;5013385;28;20435;-73
2022/04/05 01:24:21;;;;;;;0.80;0.70;;;9.00;99.90;;;;;;5013545;28;20828;-73
2022/04/05 01:26:52;;;;;;;1.33;0.77;;;9.00;99.90;;;;;;5013543;28;20192;-72
2022/04/05 01:29:19;;;;;;;0.93;0.90;;;9.10;99.90;;;;;;5013409;28;20173;-72
2022/04/05 01:31:48;;;;;;;0.70;0.60;;;9.10;99.90;;;;;;5011861;28;20423;-73
2022/04/05 01:34:16;;;;;;;0.80;0.60;;;9.10;99.90;;;;;;5013400;28;20395;-73
2022/04/05 01:36:43;;;;;;;0.70;0.50;;;9.10;99.90;;;;;;5013371;28;20470;-71
2022/04/05 01:39:10;;;;;;;0.70;0.50;;;9.20;99.90;;;;;;5013597;28;20954;-72
2022/04/05 01:41:36;;;;;;;0.70;0.50;;;9.20;99.90;;;;;;5013246;28;20419;-72
2022/04/05 01:44:03;;;;;;;1.03;0.93;;;9.20;99.90;;;;;;5012073;28;20419;-73
2022/04/05 01:46:28;;;;;;;0.70;0.50;;;9.20;99.90;;;;;;5013280;28;20449;-71
2022/04/05 01:48:54;;;;;;;0.90;0.77;;;9.30;99.90;;;;;;5013157;28;20395;-71
2022/04/05 01:51:19;;;;;;;0.97;0.87;;;9.30;99.90;;;;;;5013160;28;20716;-72
2022/04/05 01:53:45;;;;;;;1.90;1.80;;;9.40;99.90;;;;;;5012802;28;20211;-71
2022/04/05 01:56:11;;;;;;;0.90;0.80;;;9.40;99.90;;;;;;5012954;28;20665;-72
2022/04/05 01:58:37;;;;;;;0.70;0.50;;;9.40;99.90;;;;;;5012848;28;20641;-72
2022/04/05 02:01:03;;;;;;;1.37;0.87;;;9.50;99.90;;;;;;5012994;28;20629;-72
2022/04/05 02:03:29;;;;;;;0.73;0.60;;;9.50;99.90;;;;;;5012770;28;20482;-71
2022/04/05 02:05:55;;;;;;;1.00;0.77;;;9.50;99.90;;;;;;5012995;28;20458;-72
2022/04/05 02:08:20;;;;;;;0.70;0.60;;;9.50;99.90;;;;;;5012979;28;20431;-71
2022/04/05 02:10:46;;;;;;;0.70;0.50;;;9.60;99.90;;;;;;5012801;28;20650;-72
2022/04/05 02:13:11;;;;;;;3.30;1.80;;;9.60;99.90;;;;;;5012565;28;20590;-71
2022/04/05 02:15:37;;;;;;;1.87;0.93;;;9.60;99.90;;;;;;5012645;28;20187;-71
2022/04/05 02:18:03;;;;;;;0.70;0.60;;;9.60;99.90;;;;;;5012745;28;20218;-70
2022/04/05 02:20:28;;;;;;;0.70;0.50;;;9.70;99.90;;;;;;5012641;28;20172;-70
2022/04/05 02:22:54;;;;;;;1.20;0.60;;;9.70;99.90;;;;;;5012429;28;20164;-71
2022/04/05 02:25:19;;;;;;;0.70;0.50;;;9.70;99.90;;;;;;5011194;28;20795;-71
2022/04/05 02:27:47;;;;;;;0.70;0.60;;;9.70;99.90;;;;;;5012591;28;20196;-71
2022/04/05 02:30:12;;;;;;;1.00;0.87;;;9.80;99.90;;;;;;5012490;28;20173;-72
2022/04/05 02:32:38;;;;;;;1.47;1.17;;;9.80;99.90;;;;;;5012195;28;20391;-72
2022/04/05 02:35:04;;;;;;;0.70;0.50;;;9.80;99.90;;;;;;5012265;28;20238;-72
2022/04/05 02:37:30;;;;;;;0.70;0.50;;;9.80;99.90;;;;;;5012493;28;20176;-71
2022/04/05 02:39:55;;;;;;;0.90;0.70;;;9.80;99.90;;;;;;5012356;28;20466;-72
2022/04/05 02:42:21;;;;;;;1.83;0.80;;;9.80;99.90;;;;;;5012348;28;20653;-72
2022/04/05 02:44:47;;;;;;;0.70;0.60;;;9.90;99.90;;;;;;5011428;28;20206;-72
2022/04/05 02:47:15;;;;;;;1.37;1.27;;;9.90;99.90;;;;;;5011704;28;20653;-72
2022/04/05 02:49:40;;;;;;;0.70;0.50;;;9.90;99.90;;;;;;5011595;28;20430;-73
2022/04/05 02:52:06;;;;;;;0.80;0.70;;;9.90;99.90;;;;;;5012587;28;20403;-72
2022/04/05 02:54:32;;;;;;;2.00;1.43;;;9.90;99.90;;;;;;5012375;28;20569;-71
2022/04/05 02:56:57;;;;;;;1.20;1.07;;;9.90;99.90;;;;;;5012088;28;20434;-70
2022/04/05 02:59:23;;;;;;;0.70;0.50;;;10.00;99.90;;;;;;5012216;28;20175;-70
2022/04/05 03:01:49;;;;;;;2.93;2.70;;;10.00;99.90;;;;;;5010732;28;20597;-71
2022/04/05 03:04:15;;;;;;;2.10;0.60;;;10.00;99.90;;;;;;5012124;28;20438;-72
2022/04/05 03:06:41;;;;;;;1.07;0.97;;;10.00;99.90;;;;;;5012313;28;20457;-71
2022/04/05 03:09:07;;;;;;;4.97;0.97;;;10.00;99.90;;;;;;5010797;28;20222;-70
2022/04/05 03:11:32;;;;;;;1.30;1.20;;;10.10;99.90;;;;;;5010760;28;20455;-71
2022/04/05 03:13:59;;;;;;;3.70;3.10;;;10.10;99.90;;;;;;5010554;28;20180;-71
2022/04/05 03:16:24;;;;;;;1.20;1.00;;;10.10;99.90;;;;;;5011924;28;20195;-72
2022/04/05 03:18:50;;;;;;;7.53;1.50;;;10.10;99.90;;;;;;5011762;28;20403;-71
2022/04/05 03:21:16;;;;;;;1.13;1.03;;;10.10;99.90;;;;;;5011961;28;20179;-71
2022/04/05 03:23:42;;;;;;;0.90;0.60;;;10.10;99.90;;;;;;5011885;28;20407;-72
2022/04/05 03:26:07;;;;;;;0.70;0.60;;;10.10;99.90;;;;;;5012390;28;20274;-72
2022/04/05 03:28:33;;;;;;;0.70;0.50;;;10.10;99.90;;;;;;5012573;28;20160;-72
2022/04/05 03:30:59;;;;;;;1.43;1.33;;;10.20;99.90;;;;;;5012260;28;20629;-71
2022/04/05 03:33:24;;;;;;;0.70;0.50;;;10.20;99.90;;;;;;5010558;28;20260;-72
2022/04/05 03:35:50;;;;;;;1.63;0.67;;;10.20;99.90;;;;;;5012154;28;20193;-72
2022/04/05 03:38:16;;;;;;;0.77;0.67;;;10.20;99.90;;;;;;5012143;28;20192;-72
2022/04/05 03:40:42;;;;;;;1.80;1.03;;;10.20;99.90;;;;;;5012076;28;20438;-71
2022/04/05 03:43:12;;;;;;;1.07;0.97;;;10.20;99.90;;;;;;5011237;28;20183;-71
2022/04/05 03:45:37;;;;;;;1.10;0.93;;;10.20;99.90;;;;;;5011749;28;20215;-71
2022/04/05 03:48:03;;;;;;;0.90;0.80;;;10.20;99.90;;;;;;5011684;28;20432;-71
2022/04/05 03:50:30;;;;;;;1.57;1.47;;;10.30;99.90;;;;;;5011783;28;20183;-72
2022/04/05 03:52:58;;;;;;;3.20;1.53;;;10.30;99.90;;;;;;5011279;28;20175;-72
2022/04/05 03:55:24;;;;;;;0.70;0.50;;;10.30;99.90;;;;;;5011653;28;20874;-72
2022/04/05 03:57:49;;;;;;;1.97;1.63;;;10.30;99.90;;;;;;5011646;28;20430;-73
2022/04/05 04:00:15;;;;;;;2.70;1.40;;;10.30;99.90;;;;;;5011686;28;20415;-72
2022/04/05 04:02:41;;;;;;;2.57;1.70;;;10.30;99.90;;;;;;5011358;28;20176;-73
2022/04/05 04:05:06;;;;;;;1.10;0.87;;;10.40;99.90;;;;;;5011455;28;20816;-71
2022/04/05 04:07:38;;;;;;;1.43;1.10;;;10.40;99.90;;;;;;5012896;28;20187;-71
2022/04/05 04:10:04;;;;;;;0.70;0.60;;;10.40;99.90;;;;;;5015048;28;20255;-71
2022/04/05 04:12:31;;;;;;;0.70;0.50;;;10.40;99.90;;;;;;5013418;28;20427;-70
2022/04/05 04:14:57;;;;;;;1.00;0.80;;;10.40;99.90;;;;;;5014834;28;20403;-71
2022/04/05 04:17:23;;;;;;;2.50;1.80;;;10.50;99.90;;;;;;5014919;28;20946;-71
2022/04/05 04:19:48;;;;;;;1.73;1.57;;;10.50;99.90;;;;;;5014879;28;20190;-71
2022/04/05 04:22:14;;;;;;;2.27;2.07;;;10.50;99.90;;;;;;5014548;28;20591;-71
2022/04/05 04:24:39;;;;;;;1.23;1.13;;;10.60;99.90;;;;;;5014685;28;20688;-72
2022/04/05 04:27:06;;;;;;;20.30;1.17;;;10.60;99.90;;;;;;5014700;28;20234;-71
2022/04/05 04:29:32;;;;;;;1.40;0.60;;;10.60;99.90;;;;;;5014658;28;20164;-70
2022/04/05 04:31:57;;;;;;;0.70;0.53;;;10.60;99.90;;;;;;5014574;28;20971;-70
2022/04/05 04:34:23;;;;;;;3.13;2.83;;;10.60;99.90;;;;;;5014714;28;20164;-72
2022/04/05 04:36:49;;;;;;;0.80;0.80;;;10.60;99.90;;;;;;5014831;28;20185;-72
2022/04/05 04:39:17;;;;;;;0.97;0.97;;;10.70;99.90;;;;;;5014801;28;20243;-72
2022/04/05 04:41:43;;;;;;;1.00;0.87;;;10.70;99.90;;;;;;5014665;28;20917;-71
2022/04/05 04:44:09;;;;;;;1.10;0.97;;;10.70;99.90;;;;;;5014066;28;20490;-71
2022/04/05 04:46:34;;;;;;;2.33;1.33;;;10.70;99.90;;;;;;5014074;28;20538;-73
2022/04/05 04:49:00;;;;;;;2.43;1.67;;;10.70;99.90;;;;;;5014429;28;20191;-72
2022/04/05 04:51:26;;;;;;;1.17;1.07;;;10.70;99.90;;;;;;5014603;28;20558;-72
2022/04/05 04:53:51;;;;;;;1.23;0.70;;;10.80;99.90;;;;;;5014201;28;20194;-72
2022/04/05 04:56:17;;;;;;;1.77;0.70;;;10.80;99.90;;;;;;5014484;28;20271;-73
2022/04/05 04:58:42;;;;;;;1.20;0.60;;;10.80;99.90;;;;;;5013242;28;20165;-72
2022/04/05 05:01:08;;;;;;;2.00;1.43;;;10.80;99.90;;;;;;5014050;28;20183;-72
2022/04/05 05:03:33;;;;;;;2.60;1.33;;;10.80;99.90;;;;;;5013788;28;20168;-72
2022/04/05 05:06:00;;;;;;;1.77;1.40;;;10.80;99.90;;;;;;5013766;28;20200;-71
2022/04/05 05:08:26;;;;;;;0.90;0.67;;;10.80;99.90;;;;;;5013936;28;20592;-72
2022/04/05 05:10:51;;;;;;;0.70;0.50;;;10.80;99.90;;;;;;5014228;28;20438;-72
2022/04/05 05:13:20;;;;;;;1.23;0.87;;;10.90;99.90;;;;;;5013839;28;20515;-72
2022/04/05 05:15:46;;;;;;;1.93;1.07;;;10.90;99.90;;;;;;5013802;28;20598;-70
2022/04/05 05:18:12;;;;;;;0.80;0.70;;;10.90;99.90;;;;;;5013987;28;20422;-73
2022/04/05 05:20:37;;;;;;;2.13;1.43;;;10.90;99.90;;;;;;5013746;28;20283;-71
2022/04/05 05:23:03;;;;;;;1.33;1.23;;;10.90;99.90;;;;;;5013596;28;20664;-71
2022/04/05 05:25:29;;;;;;;1.53;1.43;;;10.90;99.90;;;;;;5013657;28;20200;-70
2022/04/05 05:27:55;;;;;;;2.03;1.33;;;11.00;99.90;;;;;;5013806;28;20975;-71
2022/04/05 05:30:22;;;;;;;0.87;0.87;;;10.90;99.90;;;;;;5013606;28;20164;-70
2022/04/05 05:32:49;;;;;;;0.80;0.60;;;11.00;99.90;;;;;;5013421;28;20161;-71
2022/04/05 05:35:16;;;;;;;3.77;0.77;;;11.00;99.90;;;;;;5014120;28;20569;-71
2022/04/05 05:37:42;;;;;;;3.33;1.53;;;11.00;99.90;;;;;;5012324;28;20464;-69
2022/04/05 05:40:08;;;;;;;1.30;1.00;;;11.00;99.90;;;;;;5013461;28;20498;-71
2022/04/05 05:42:34;;;;;;;1.90;1.10;;;11.00;99.90;;;;;;5013091;28;20172;-72
2022/04/05 05:44:59;;;;;;;0.70;0.60;;;11.00;99.90;;;;;;5013409;28;20454;-71
2022/04/05 05:47:25;;;;;;;1.00;0.90;;;11.10;99.90;;;;;;5012112;28;20172;-69
2022/04/05 05:49:50;;;;;;;1.00;0.80;;;11.10;99.90;;;;;;5013213;28;20175;-70
2022/04/05 05:52:16;;;;;;;0.80;0.80;;;11.10;99.90;;;;;;5011644;28;20176;-69
2022/04/05 05:54:41;;;;;;;0.87;0.83;;;11.10;99.90;;;;;;5013092;28;20184;-70
2022/04/05 05:57:07;;;;;;;1.33;0.90;;;11.20;99.90;;;;;;5013094;28;20255;-70
2022/04/05 05:59:33;;;;;;;1.63;1.47;;;11.20;99.90;;;;;;5012141;28;20168;-71
2022/04/05 06:01:58;;;;;;;0.70;0.50;;;11.20;99.90;;;;;;5013076;28;20410;-72
2022/04/05 06:04:24;;;;;;;0.80;0.60;;;11.20;99.90;;;;;;5012609;28;20173;-72
2022/04/05 06:06:50;;;;;;;4.03;1.47;;;11.30;99.90;;;;;;5012808;28;20536;-71
2022/04/05 06:09:15;;;;;;;0.80;0.50;;;11.30;99.90;;;;;;5012916;28;20526;-70
2022/04/05 06:11:41;;;;;;;2.60;2.50;;;11.30;99.90;;;;;;5012918;28;20219;-71
2022/04/05 06:14:06;;;;;;;3.90;1.23;;;11.40;99.90;;;;;;5012497;28;20169;-70
2022/04/05 06:16:32;;;;;;;1.00;0.80;;;11.40;99.90;;;;;;5011399;28;20573;-71
2022/04/05 06:18:57;;;;;;;1.13;0.90;;;11.40;99.90;;;;;;5011465;28;20202;-71
2022/04/05 06:21:23;;;;;;;1.10;1.00;;;11.40;99.90;;;;;;5013005;28;20215;-72
2022/04/05 06:23:48;;;;;;;1.23;1.13;;;11.50;99.90;;;;;;5012433;28;20206;-70
2022/04/05 06:26:14;;;;;;;1.63;1.10;;;11.50;99.90;;;;;;5012780;28;20227;-72
2022/04/05 06:28:40;;;;;;;0.90;0.90;;;11.50;99.90;;;;;;5012762;28;20168;-71
2022/04/05 06:31:06;;;;;;;0.80;0.60;;;11.50;99.90;;;;;;5012127;28;20176;-71
2022/04/05 06:33:31;;;;;;;2.00;1.80;;;11.50;99.90;;;;;;5012306;28;20913;-72
2022/04/05 06:35:58;;;;;;;1.07;0.97;;;11.50;99.90;;;;;;5012747;28;20195;-72
2022/04/05 06:38:25;;;;;;;0.80;0.70;;;11.50;99.90;;;;;;5011544;28;20176;-72
2022/04/05 06:40:52;;;;;;;1.27;1.17;;;11.50;99.90;;;;;;5013042;28;20812;-69
2022/04/05 06:43:25;;;;;;;2.30;1.20;;;11.50;99.90;;;;;;5012129;28;20404;-72
2022/04/05 06:45:51;;;;;;;1.20;1.10;;;11.50;99.90;;;;;;5012314;28;20451;-71
2022/04/05 06:48:18;;;;;;;0.90;0.80;;;11.60;99.90;;;;;;5012321;28;20399;-70
2022/04/05 06:50:44;;;;;;;0.70;0.50;;;11.60;99.90;;;;;;5012315;28;20418;-71
2022/04/05 06:53:10;;;;;;;2.10;0.97;;;11.60;99.90;;;;;;5012103;28;20399;-71
2022/04/05 06:55:37;;;;;;;1.10;0.80;;;11.60;99.90;;;;;;5012275;28;20238;-69
2022/04/05 06:58:03;;;;;;;0.70;0.60;;;11.70;99.90;;;;;;5012223;28;20399;-71
2022/04/05 07:00:32;;;;;;;3.00;1.30;;;11.70;99.90;;;;;;5011096;28;20419;-70
2022/04/05 07:02:58;;;;;;;1.00;0.90;;;11.70;99.90;;;;;;5011094;28;20449;-71
2022/04/05 07:05:24;;;;;;;1.23;0.83;;;11.70;99.90;;;;;;5012127;28;21000;-72
2022/04/05 07:07:50;;;;;;;0.80;0.67;;;11.80;99.90;;;;;;5012249;28;20187;-70
2022/04/05 07:10:18;;;;;;;2.07;0.67;;;11.80;99.90;;;;;;5012377;28;20164;-70
2022/04/05 07:12:46;;;;;;;0.90;0.80;;;11.90;99.90;;;;;;5011849;28;20761;-70
2022/04/05 07:15:12;;;;;;;1.30;1.07;;;11.90;99.90;;;;;;5012131;28;20427;-69
2022/04/05 07:17:39;;;;;;;1.00;0.90;;;12.00;99.90;;;;;;5010890;28;20909;-72
2022/04/05 07:20:08;;;;;;;0.87;0.77;;;12.10;99.90;;;;;;5012027;28;20789;-70
2022/04/05 07:22:34;;;;;;;0.87;0.63;;;12.10;99.90;;;;;;5010490;28;20413;-70
2022/04/05 07:25:00;;;;;;;0.70;0.50;;;12.20;99.90;;;;;;5011833;28;20964;-72
2022/04/05 07:27:25;;;;;;;0.70;0.50;;;12.20;99.90;;;;;;5012377;28;20398;-71
2022/04/05 07:29:51;;;;;;;1.90;1.80;;;12.30;99.90;;;;;;5011399;28;20180;-72
2022/04/05 07:32:16;;;;;;;1.53;0.77;;;12.30;99.90;;;;;;5011845;28;20160;-70
2022/04/05 07:34:42;;;;;;;0.90;0.83;;;12.30;99.90;;;;;;5011318;28;20629;-70
2022/04/05 07:37:10;;;;;;;1.00;0.90;;;12.30;99.90;;;;;;5012183;28;20238;-71
2022/04/05 07:39:36;;;;;;;0.90;0.90;;;12.30;99.90;;;;;;5011825;28;20268;-71
2022/04/05 07:42:02;;;;;;;1.00;0.70;;;12.30;99.90;;;;;;5012463;28;20418;-70
2022/04/05 07:44:27;;;;;;;0.80;0.70;;;12.30;99.90;;;;;;5015205;28;20407;-71
2022/04/05 07:46:53;;;;;;;1.30;1.20;;;12.30;99.90;;;;;;5015768;28;20254;-72
2022/04/05 07:49:18;;;;;;;1.50;1.40;;;12.30;99.90;;;;;;5016256;28;20164;-73
2022/04/05 07:51:44;;;;;;;1.30;0.90;;;12.30;99.90;;;;;;5015903;28;20164;-71
2022/04/05 07:54:10;;;;;;;1.03;0.93;;;12.30;99.90;;;;;;5015426;28;20242;-71
2022/04/05 07:56:35;;;;;;;2.70;1.07;;;12.30;99.90;;;;;;5015984;28;20271;-70
2022/04/05 07:59:02;;;;;;;0.70;0.60;;;12.30;99.90;;;;;;5014255;28;20179;-70
2022/04/05 08:01:29;;;;;;;1.00;0.97;;;12.40;99.90;;;;;;5015444;28;20263;-71
2022/04/05 08:03:55;;;;;;;1.27;1.17;;;12.40;99.90;;;;;;5015388;28;20407;-70
2022/04/05 08:06:21;;;;;;;1.00;0.90;;;12.40;99.90;;;;;;5015416;28;20465;-69
2022/04/05 08:08:47;;;;;;;0.90;0.73;;;12.40;99.90;;;;;;5015851;28;20403;-70
2022/04/05 08:11:12;;;;;;;0.90;0.80;;;12.40;99.90;;;;;;5013719;28;20172;-70
2022/04/05 08:13:38;;;;;;;0.90;0.80;;;12.50;99.90;;;;;;5014997;28;20171;-71
2022/04/05 08:16:03;;;;;;;1.27;1.17;;;12.50;99.90;;;;;;5014991;28;20661;-71
2022/04/05 08:18:29;;;;;;;1.07;0.90;;;12.50;99.90;;;;;;5015922;28;20187;-70
2022/04/05 08:20:55;;;;;;;1.30;0.83;;;12.60;99.90;;;;;;5015582;28;20168;-71
2022/04/05 08:23:21;;;;;;;1.27;1.17;;;12.70;99.90;;;;;;5015170;28;20176;-71
2022/04/05 08:25:46;;;;;;;0.80;0.80;;;12.80;99.90;;;;;;5015262;28;20512;-71
2022/04/05 08:28:12;;;;;;;1.43;1.33;;;13.00;99.90;;;;;;5014874;28;20175;-72
2022/04/05 08:30:38;;;;;;;2.17;1.07;;;13.10;99.90;;;;;;5014788;28;20172;-70
2022/04/05 08:33:03;;;;;;;0.90;0.90;;;13.30;99.90;;;;;;5014923;28;20168;-72
2022/04/05 08:35:29;;;;;;;2.40;1.33;;;13.40;99.90;;;;;;5014655;28;20430;-71
2022/04/05 08:37:55;;;;;;;4.83;2.10;;;13.60;99.90;;;;;;5014532;28;20214;-71
2022/04/05 08:40:23;;;;;;;1.63;1.53;;;13.70;99.90;;;;;;5014883;28;20251;-71
2022/04/05 08:42:51;;;;;;;2.03;1.50;;;13.90;99.90;;;;;;5014213;28;20494;-70
2022/04/05 08:45:19;;;;;;;2.07;0.90;;;14.00;99.90;;;;;;5014214;28;20723;-71
2022/04/05 08:47:48;;;;;;;1.10;0.83;;;14.10;99.90;;;;;;5014442;28;20403;-70
2022/04/05 08:50:17;;;;;;;0.90;0.80;;;14.10;99.90;;;;;;5014410;28;20403;-71
2022/04/05 08:52:44;;;;;;;1.83;1.73;;;14.20;99.90;;;;;;5013647;28;20434;-71
2022/04/05 08:55:10;;;;;;;2.10;1.23;;;14.30;99.90;;;;;;5014015;28;20500;-71
2022/04/05 08:57:37;;;;;;;1.97;1.00;;;14.60;99.90;;;;;;5014173;28;20402;-71
2022/04/05 09:00:05;;;;;;;4.93;3.73;;;14.80;99.90;;;;;;5014244;28;20411;-70
2022/04/05 09:02:31;;;;;;;2.93;1.63;;;15.00;99.90;;;;;;5014393;28;20775;-72
2022/04/05 09:04:56;;;;;;;2.10;1.20;;;15.20;99.90;;;;;;5012840;28;20465;-71
2022/04/05 09:07:23;;;;;;;2.03;1.20;;;15.30;99.90;;;;;;5015831;28;20164;-71
2022/04/05 09:10:09;;;;;;;2.57;1.43;;;15.30;99.90;;;;;;5014115;28;20582;-70
2022/04/05 09:13:01;;;;;;;4.97;1.50;;;15.30;99.90;;;;;;5012225;28;20419;-70
2022/04/05 09:15:27;;;;;;;4.67;2.53;;;15.40;99.90;;;;;;5015143;28;20443;-72
2022/04/05 09:17:53;;;;;;;4.30;2.50;;;15.40;99.90;;;;;;5014170;28;20413;-71
2022/04/05 09:20:20;;;;;;;1.67;1.07;;;15.40;99.90;;;;;;5014032;28;20168;-73
2022/04/05 09:22:46;;;;;;;2.30;1.10;;;15.40;99.90;;;;;;5013509;28;20411;-73
2022/04/05 09:25:14;;;;;;;1.20;1.10;;;15.50;99.90;;;;;;5013480;28;20465;-73
2022/04/05 09:27:51;;;;;;;1.73;1.60;;;15.50;99.90;;;;;;5013687;28;20168;-70
2022/04/05 09:30:22;;;;;;;1.40;0.90;;;15.40;99.90;;;;;;5013734;28;20410;-70
2022/04/05 09:32:48;;;;;;;2.90;1.90;;;15.40;99.90;;;;;;5013188;28;20403;-70
2022/04/05 09:35:19;;;;;;;2.37;1.30;;;15.40;99.90;;;;;;5012137;28;20486;-71
2022/04/05 09:37:46;;;;;;;1.20;1.07;;;15.40;99.90;;;;;;5013452;28;20774;-70
2022/04/05 09:40:34;;;;;;;3.83;2.37;;;15.30;99.90;;;;;;5013402;28;20407;-71
2022/04/05 09:43:03;;;;;;;4.10;3.13;;;15.30;99.90;;;;;;5013103;28;20415;-71
2022/04/05 09:45:46;;;;;;;1.73;1.43;;;15.30;99.90;;;;;;5013183;28;21002;-72
2022/04/05 09:48:13;;;;;;;2.93;1.50;;;15.40;99.90;;;;;;5011967;28;20494;-71
2022/04/05 09:51:09;;;;;;;1.63;1.50;;;15.50;99.90;;;;;;5012881;28;20403;-72
2022/04/05 09:53:56;;;;;;;1.73;1.13;;;15.60;99.90;;;;;;5012700;28;20425;-72
2022/04/05 09:56:30;;;;;;;4.50;3.23;;;15.70;99.90;;;;;;5013192;28;20800;-70
2022/04/05 09:59:03;;;;;;;4.20;1.97;;;15.70;99.90;;;;;;5011928;28;20411;-71
2022/04/05 10:01:34;;;;;;;1.73;1.63;;;15.70;99.90;;;;;;5013158;28;20408;-71
2022/04/05 10:04:03;;;;;;;3.10;2.80;;;15.70;99.90;;;;;;5012574;28;20410;-71
2022/04/05 10:06:30;;;;;;;4.83;2.37;;;15.70;99.90;;;;;;5012205;28;20455;-72
2022/04/05 10:08:57;;;;;;;3.27;1.77;;;15.70;99.90;;;;;;5012912;28;20395;-71
2022/04/05 10:11:28;;;;;;;2.10;1.50;;;15.70;99.90;;;;;;5012898;28;20407;-71
2022/04/05 10:13:55;;;;;;;4.90;2.40;;;15.90;99.90;;;;;;5014258;28;20486;-72
2022/04/05 10:16:24;;;;;;;1.40;1.30;;;16.10;99.90;;;;;;5014111;28;20518;-72
2022/04/05 10:18:51;;;;;;;2.93;1.37;;;16.40;99.90;;;;;;5014350;28;20494;-72
2022/04/05 10:21:19;;;;;;;1.00;0.80;;;16.50;99.90;;;;;;5014632;28;20978;-71
2022/04/05 10:23:47;;;;;;;3.07;1.73;;;16.70;99.90;;;;;;5014232;28;20411;-72
2022/04/05 10:26:18;;;;;;;1.27;1.00;;;16.80;99.90;;;;;;5013927;28;20463;-72
2022/04/05 10:28:48;;;;;;;3.17;2.07;;;17.00;99.90;;;;;;5013211;28;20415;-71
2022/04/05 10:31:24;;;;;;;1.33;1.23;;;17.40;99.90;;;;;;5013794;28;20402;-72
2022/04/05 10:34:18;;;;;;;4.90;1.50;;;17.60;99.90;;;;;;5012183;28;20407;-71
2022/04/05 10:37:05;;;;;;;1.73;1.07;;;17.80;99.90;;;;;;5012392;28;20506;-72
2022/04/05 10:39:31;;;;;;;2.40;1.90;;;18.20;99.90;;;;;;5012406;28;20398;-71
2022/04/05 10:42:08;;;;;;;1.63;1.53;;;18.40;99.90;;;;;;5012356;28;20418;-70
2022/04/05 10:44:36;;;;;;;2.30;1.47;;;18.50;99.90;;;;;;5012047;28;20172;-71
2022/04/05 10:47:06;;;;;;;1.53;1.43;;;18.50;99.90;;;;;;5011018;28;20816;-71
2022/04/05 10:49:42;;;;;;;1.50;1.10;;;18.40;99.90;;;;;;5012940;28;20410;-71
2022/04/05 10:52:18;;;;;;;1.93;1.37;;;18.30;99.90;;;;;;5012871;28;20490;-71
2022/04/05 10:54:46;;;;;;;1.00;0.90;;;18.20;99.90;;;;;;5011529;28;20441;-72
2022/04/05 10:57:26;;;;;;;1.37;1.27;;;18.10;99.90;;;;;;5012305;28;20503;-71
2022/04/05 11:00:05;;;;;;;2.10;1.60;;;18.00;99.90;;;;;;5013689;28;20414;-72
2022/04/05 11:02:33;;;;;;;1.87;1.50;;;18.00;99.90;;;;;;5011713;28;20450;-72
2022/04/05 11:05:14;;;;;;;3.47;1.10;;;18.00;99.90;;;;;;5010338;28;20454;-72
2022/04/05 11:07:51;;;;;;;1.63;1.20;;;18.10;99.90;;;;;;5012002;28;20395;-71
2022/04/05 11:10:26;;;;;;;1.43;1.10;;;18.10;99.90;;;;;;5011722;28;20395;-72
2022/04/05 11:13:04;;;;;;;2.70;1.87;;;18.20;99.90;;;;;;5011822;28;20432;-70
2022/04/05 11:15:46;;;;;;;1.63;1.23;;;18.10;99.90;;;;;;5012045;28;20442;-71
2022/04/05 11:18:17;;;;;;;1.30;0.90;;;18.00;99.90;;;;;;5016260;28;20908;-71
2022/04/05 11:20:45;;;;;;;3.63;1.53;;;17.90;99.90;;;;;;5014823;28;20415;-71
2022/04/05 11:23:12;;;;;;;1.17;1.07;;;17.80;99.90;;;;;;5015715;28;20671;-71
2022/04/05 11:25:38;;;;;;;1.50;1.30;;;17.70;99.90;;;;;;5017142;28;20490;-71
2022/04/05 11:28:21;;;;;;;2.00;0.90;;;17.70;99.90;;;;;;5017065;28;20450;-72
2022/04/05 11:31:06;;;;;;;1.37;0.87;;;17.90;99.90;;;;;;5017806;28;20411;-71
2022/04/05 11:33:32;;;;;;;3.00;2.17;;;18.00;99.90;;;;;;5015542;28;20414;-71
2022/04/05 11:36:09;;;;;;;1.10;0.87;;;18.10;99.90;;;;;;5015150;28;20443;-71
2022/04/05 11:38:36;;;;;;;1.33;1.23;;;18.20;99.90;;;;;;5017750;28;20229;-72
2022/04/05 11:41:23;;;;;;;2.07;1.30;;;18.30;99.90;;;;;;5016262;28;20421;-70
2022/04/05 11:44:03;;;;;;;1.20;1.10;;;18.50;99.90;;;;;;5017170;28;20403;-72
2022/04/05 11:46:30;;;;;;;1.37;1.00;;;18.60;99.90;;;;;;5015795;28;20462;-72
2022/04/05 11:48:58;;;;;;;1.80;1.70;;;18.60;99.90;;;;;;5015708;28;20490;-72
2022/04/05 11:51:27;;;;;;;1.60;1.40;;;18.50;99.90;;;;;;5016833;28;20414;-71
2022/04/05 11:54:08;;;;;;;2.70;1.77;;;18.30;99.90;;;;;;5015136;28;20517;-72
2022/04/05 11:56:34;;;;;;;1.27;0.90;;;18.10;99.90;;;;;;5014468;28;20948;-72
2022/04/05 11:59:01;;;;;;;1.73;1.37;;;18.00;99.90;;;;;;5015309;28;20896;-71
2022/04/05 12:01:29;;;;;;;1.20;1.10;;;17.80;99.90;;;;;;5016102;28;20486;-71
2022/04/05 12:03:57;;;;;;;1.50;0.93;;;17.60;99.90;;;;;;5016372;28;20449;-71
2022/04/05 12:06:29;;;;;;;1.30;1.20;;;17.50;99.90;;;;;;5014913;28;20482;-71
2022/04/05 12:08:58;;;;;;;2.70;2.13;;;17.50;99.90;;;;;;5016052;28;20426;-72
2022/04/05 12:11:25;;;;;;;1.83;1.30;;;17.40;99.90;;;;;;5016617;28;20407;-71
2022/04/05 12:13:56;;;;;;;0.80;0.60;;;17.40;99.90;;;;;;5014814;28;20752;-71
2022/04/05 12:16:24;;;;;;;2.63;1.33;;;17.40;99.90;;;;;;5016590;28;20786;-72
2022/04/05 12:18:51;;;;;;;0.90;0.80;;;17.50;99.90;;;;;;5016984;28;20412;-72
2022/04/05 12:21:18;;;;;;;1.93;1.57;;;17.60;99.90;;;;;;5016561;28;20537;-71
2022/04/05 12:23:44;;;;;;;1.60;1.40;;;17.60;99.90;;;;;;5016269;28;20792;-71
2022/04/05 12:26:11;;;;;;;2.33;2.13;;;17.60;99.90;;;;;;5016393;28;20458;-71
2022/04/05 12:28:39;;;;;;;0.80;0.70;;;17.60;99.90;;;;;;5014350;28;20486;-71
2022/04/05 12:31:19;;;;;;;1.00;0.90;;;17.70;99.90;;;;;;5017042;28;20433;-71
2022/04/05 12:34:05;;;;;;;1.47;1.37;;;17.70;99.90;;;;;;5016589;28;20403;-72
2022/04/05 12:36:42;;;;;;;0.93;0.80;;;17.80;99.90;;;;;;5015512;28;20464;-71
2022/04/05 12:39:20;;;;;;;1.43;1.33;;;18.10;99.90;;;;;;5014641;28;20493;-70
2022/04/05 12:41:50;;;;;;;1.33;1.03;;;18.20;99.90;;;;;;5013373;28;20457;-71
2022/04/05 12:44:18;;;;;;;1.67;1.10;;;18.40;99.90;;;;;;5014282;28;20764;-71
2022/04/05 12:46:51;;;;;;;2.90;1.50;;;18.60;99.90;;;;;;5014359;28;20477;-71
2022/04/05 12:49:30;;;;;;;1.00;0.87;;;18.70;99.90;;;;;;5014643;28;20786;-71
2022/04/05 12:52:15;;;;;;;1.40;1.30;;;18.90;99.90;;;;;;5014471;28;20430;-71